Detall de PIREP

Printer-friendly versionPDF version

[2008/08/27 20:49:00]
Flight IATA:CT3117
Pilot Number:011
Company ICAO:CAT
Aircraft Type:F28/A
PAX:85
Departing Airport: LEZG
Destination Airport: LEBL
Alternate Airport:LEPA
Online: VATSIM
Route:PONEN W800 CASPE
Flight Level:FL220
No Slew and time accel
No pause
Crash detect
Detect pilot in Cockpit between each 30 and 45 minutes
20:49 Zero fuel Weight: 60786 Lbs, Fuel Weight: 7480 Lbs
20:49 VATSIM:LEZG 272030Z 12005KT 9999 TS FEW030 SCT035CB BKN150 25/17 Q1019
20:49 VATSIM:LEBL 272030Z VRB02KT CAVOK 23/18 Q1019 NOSIG
20:51 Parking Brakes off
21:00 Take-off
21:00 Take off Weight: 67835 Lbs
21:00 Wind: 123 @ 006 Knots Heading: 300
21:00 POS N41 39 50 W001 01 42
21:00 Flaps:2 at 166 Knots
21:00 Gear Up: 171 Knots
21:01 Flaps:1 at 231 Knots
21:01 Flaps:0 at 238 Knots
21:15 Wind:095@010 Knots Heading: 098 Ground Speed: 389 Knots Altitude 21719 ft
21:15
TOC
21:15 Fuel Weight: 5369 Lb
21:18 TOD
21:18 Fuel Weight: 5047 Lb
21:30 Wind:319@008 Knots Heading: 065 Ground Speed: 272 Knots Altitude 4727 ft
21:35 Flaps:1 at 216 Knots
21:36 Flaps:2 at 207 Knots
21:36 Flaps:3 at 191 Knots
21:37 Flaps:4 at 162 Knots
21:37 Gear Down: 161 Knots
21:38 Flaps:5 at 151 Knots
21:39 TouchDown:Rate -326 ft/min Speed: 111 Knots
21:40 VATSIM:LEBL 272130Z 33004KT CAVOK 23/17 Q1019 NOSIG
21:40 Land
21:40 Wind:322@004 Knots
21:40 Heading: 246
21:40 Flight Duration: 00:40
21:40 Landing Weight: 64750 Lbs
21:40 POS N41 17 58 E002 05 07
21:45 Parking brakes on
21:45 Block to Block Duration: 00:54
21:45 Final Fuel: 3783 Lbls
21:45 Spent Fuel: 3697 Lbls
21:45 Flight Length: 47 NM
21:45 TOD Land Length: 32 NM

Exportar CSV

Powered by Drupal - Modified by Danger4k